sensor_id;sensor_type;location;lat;lon;timestamp;noise_LAeq;noise_LA_min;noise_LA_max;noise_LA01;noise_LA95
41704;Laerm;861;48.808;9.006;2023-01-13T00:01:27;37.84;36.33;47.27;;
41704;Laerm;861;48.808;9.006;2023-01-13T00:03:55;37.61;36.29;48.47;;
41704;Laerm;861;48.808;9.006;2023-01-13T00:06:24;37.59;36.41;39.08;;
41704;Laerm;861;48.808;9.006;2023-01-13T00:08:53;37.74;36.10;44.87;;
41704;Laerm;861;48.808;9.006;2023-01-13T00:11:21;37.71;36.15;45.21;;
41704;Laerm;861;48.808;9.006;2023-01-13T00:13:48;37.83;36.19;48.05;;
41704;Laerm;861;48.808;9.006;2023-01-13T00:16:18;37.72;36.32;47.72;;
41704;Laerm;861;48.808;9.006;2023-01-13T00:18:47;37.56;36.29;39.03;;
41704;Laerm;861;48.808;9.006;2023-01-13T00:21:20;37.66;36.20;43.86;;
41704;Laerm;861;48.808;9.006;2023-01-13T00:23:51;37.65;36.39;43.73;;
41704;Laerm;861;48.808;9.006;2023-01-13T00:26:26;38.03;36.28;53.27;;
41704;Laerm;861;48.808;9.006;2023-01-13T00:28:59;37.80;36.31;44.39;;
41704;Laerm;861;48.808;9.006;2023-01-13T00:31:28;37.59;36.19;38.81;;
41704;Laerm;861;48.808;9.006;2023-01-13T00:34:00;37.60;36.25;42.71;;
41704;Laerm;861;48.808;9.006;2023-01-13T00:36:28;38.00;36.35;51.63;;
41704;Laerm;861;48.808;9.006;2023-01-13T00:38:56;37.60;36.21;39.14;;
41704;Laerm;861;48.808;9.006;2023-01-13T00:41:26;37.63;36.21;42.28;;
41704;Laerm;861;48.808;9.006;2023-01-13T00:43:52;37.65;36.29;44.33;;
41704;Laerm;861;48.808;9.006;2023-01-13T00:46:21;37.69;36.33;44.62;;
41704;Laerm;861;48.808;9.006;2023-01-13T00:48:48;37.66;36.20;42.97;;
41704;Laerm;861;48.808;9.006;2023-01-13T00:51:20;37.59;36.19;40.40;;
41704;Laerm;861;48.808;9.006;2023-01-13T00:53:50;37.64;36.25;45.00;;
41704;Laerm;861;48.808;9.006;2023-01-13T00:56:23;37.57;36.28;38.88;;
41704;Laerm;861;48.808;9.006;2023-01-13T00:58:50;37.62;36.37;41.95;;
41704;Laerm;861;48.808;9.006;2023-01-13T01:01:23;37.56;36.29;38.74;;
41704;Laerm;861;48.808;9.006;2023-01-13T01:03:53;37.70;36.24;46.05;;
41704;Laerm;861;48.808;9.006;2023-01-13T01:06:26;37.55;36.36;38.69;;
41704;Laerm;861;48.808;9.006;2023-01-13T01:08:54;37.58;36.17;41.64;;
41704;Laerm;861;48.808;9.006;2023-01-13T01:11:31;37.56;36.12;38.98;;
41704;Laerm;861;48.808;9.006;2023-01-13T01:14:03;37.57;36.22;40.21;;
41704;Laerm;861;48.808;9.006;2023-01-13T01:16:32;37.65;35.79;42.61;;
41704;Laerm;861;48.808;9.006;2023-01-13T01:19:00;37.57;36.38;41.20;;
41704;Laerm;861;48.808;9.006;2023-01-13T01:21:28;37.56;36.35;38.78;;
41704;Laerm;861;48.808;9.006;2023-01-13T01:23:59;37.60;36.28;41.98;;
41704;Laerm;861;48.808;9.006;2023-01-13T01:26:29;37.67;36.18;46.49;;
41704;Laerm;861;48.808;9.006;2023-01-13T01:28:56;37.60;36.18;42.31;;
41704;Laerm;861;48.808;9.006;2023-01-13T01:31:31;37.59;36.34;44.07;;
41704;Laerm;861;48.808;9.006;2023-01-13T01:34:00;38.11;36.21;51.21;;
41704;Laerm;861;48.808;9.006;2023-01-13T01:36:28;37.58;36.20;40.31;;
41704;Laerm;861;48.808;9.006;2023-01-13T01:38:58;37.73;36.22;47.20;;
41704;Laerm;861;48.808;9.006;2023-01-13T01:41:32;37.71;36.20;46.83;;
41704;Laerm;861;48.808;9.006;2023-01-13T01:47:17;37.80;36.46;47.53;;
41704;Laerm;861;48.808;9.006;2023-01-13T01:49:46;37.74;36.23;46.20;;
41704;Laerm;861;48.808;9.006;2023-01-13T01:52:31;37.68;36.17;43.55;;
41704;Laerm;861;48.808;9.006;2023-01-13T01:55:22;37.78;36.34;46.29;;
41704;Laerm;861;48.808;9.006;2023-01-13T02:01:25;37.90;36.29;49.67;;
41704;Laerm;861;48.808;9.006;2023-01-13T02:04:15;37.81;36.25;48.01;;
41704;Laerm;861;48.808;9.006;2023-01-13T02:06:48;38.99;36.20;53.50;;
41704;Laerm;861;48.808;9.006;2023-01-13T02:09:16;37.67;36.36;44.23;;
41704;Laerm;861;48.808;9.006;2023-01-13T02:11:44;38.56;36.32;55.73;;
41704;Laerm;861;48.808;9.006;2023-01-13T02:14:34;37.63;36.24;41.87;;
41704;Laerm;861;48.808;9.006;2023-01-13T02:21:00;37.98;36.36;47.63;;
41704;Laerm;861;48.808;9.006;2023-01-13T02:24:40;38.08;36.21;52.97;;
41704;Laerm;861;48.808;9.006;2023-01-13T02:31:09;38.56;36.27;54.56;;
41704;Laerm;861;48.808;9.006;2023-01-13T02:34:16;37.80;36.25;49.41;;
41704;Laerm;861;48.808;9.006;2023-01-13T02:37:13;37.61;36.36;46.12;;
41704;Laerm;861;48.808;9.006;2023-01-13T02:40:33;37.80;36.41;50.02;;
41704;Laerm;861;48.808;9.006;2023-01-13T02:43:38;38.15;36.21;51.80;;
41704;Laerm;861;48.808;9.006;2023-01-13T02:46:42;37.88;36.16;47.70;;
41704;Laerm;861;48.808;9.006;2023-01-13T02:49:34;37.82;36.11;48.35;;
41704;Laerm;861;48.808;9.006;2023-01-13T02:52:30;39.43;36.33;54.34;;
41704;Laerm;861;48.808;9.006;2023-01-13T02:55:21;38.08;36.25;51.60;;
41704;Laerm;861;48.808;9.006;2023-01-13T02:57:58;37.47;36.11;42.32;;
41704;Laerm;861;48.808;9.006;2023-01-13T03:00:27;37.63;36.22;45.06;;
41704;Laerm;861;48.808;9.006;2023-01-13T03:02:54;37.59;36.30;46.93;;
41704;Laerm;861;48.808;9.006;2023-01-13T03:05:22;38.00;36.28;50.79;;
41704;Laerm;861;48.808;9.006;2023-01-13T03:08:15;37.48;36.09;42.21;;
41704;Laerm;861;48.808;9.006;2023-01-13T03:11:06;37.67;36.09;48.53;;
41704;Laerm;861;48.808;9.006;2023-01-13T03:17:14;37.83;36.13;52.45;;
41704;Laerm;861;48.808;9.006;2023-01-13T03:20:07;37.93;36.21;47.93;;
41704;Laerm;861;48.808;9.006;2023-01-13T03:26:03;37.59;36.23;44.29;;
41704;Laerm;861;48.808;9.006;2023-01-13T03:28:48;37.69;36.17;47.08;;
41704;Laerm;861;48.808;9.006;2023-01-13T03:31:30;37.62;36.18;46.88;;
41704;Laerm;861;48.808;9.006;2023-01-13T03:34:24;38.04;36.13;51.60;;
41704;Laerm;861;48.808;9.006;2023-01-13T03:37:03;37.80;36.16;47.23;;
41704;Laerm;861;48.808;9.006;2023-01-13T03:39:57;38.18;36.22;51.51;;
41704;Laerm;861;48.808;9.006;2023-01-13T03:42:34;38.81;36.41;50.96;;
41704;Laerm;861;48.808;9.006;2023-01-13T03:45:14;38.66;35.97;61.04;;
41704;Laerm;861;48.808;9.006;2023-01-13T03:47:56;37.59;36.29;42.24;;
41704;Laerm;861;48.808;9.006;2023-01-13T03:50:51;38.56;36.18;55.74;;
41704;Laerm;861;48.808;9.006;2023-01-13T03:53:44;38.09;36.09;51.05;;
41704;Laerm;861;48.808;9.006;2023-01-13T03:56:45;41.38;36.11;57.17;;
41704;Laerm;861;48.808;9.006;2023-01-13T03:59:30;37.72;36.06;49.10;;
41704;Laerm;861;48.808;9.006;2023-01-13T04:02:43;38.11;36.05;50.61;;
41704;Laerm;861;48.808;9.006;2023-01-13T04:05:14;38.63;36.13;53.59;;
41704;Laerm;861;48.808;9.006;2023-01-13T04:07:59;38.51;36.21;54.67;;
41704;Laerm;861;48.808;9.006;2023-01-13T04:13:29;37.61;36.28;44.71;;
41704;Laerm;861;48.808;9.006;2023-01-13T04:15:59;37.75;36.40;47.84;;
41704;Laerm;861;48.808;9.006;2023-01-13T04:18:29;39.13;36.43;55.05;;
41704;Laerm;861;48.808;9.006;2023-01-13T04:21:01;38.27;36.24;51.82;;
41704;Laerm;861;48.808;9.006;2023-01-13T04:23:28;38.63;36.34;53.74;;
41704;Laerm;861;48.808;9.006;2023-01-13T04:25:56;39.44;36.31;57.53;;
41704;Laerm;861;48.808;9.006;2023-01-13T04:28:24;38.21;36.35;50.19;;
41704;Laerm;861;48.808;9.006;2023-01-13T04:30:51;38.12;36.43;49.65;;
41704;Laerm;861;48.808;9.006;2023-01-13T04:33:19;37.80;36.35;47.45;;
41704;Laerm;861;48.808;9.006;2023-01-13T04:35:47;37.64;36.13;45.38;;
41704;Laerm;861;48.808;9.006;2023-01-13T04:38:19;38.10;36.31;47.20;;
41704;Laerm;861;48.808;9.006;2023-01-13T04:40:47;37.72;36.27;48.91;;
41704;Laerm;861;48.808;9.006;2023-01-13T04:43:13;38.50;36.33;52.69;;
41704;Laerm;861;48.808;9.006;2023-01-13T04:45:42;38.24;36.15;51.31;;
41704;Laerm;861;48.808;9.006;2023-01-13T04:48:09;38.43;36.03;49.98;;
41704;Laerm;861;48.808;9.006;2023-01-13T04:50:35;38.50;36.21;53.36;;
41704;Laerm;861;48.808;9.006;2023-01-13T04:53:02;38.24;36.05;49.58;;
41704;Laerm;861;48.808;9.006;2023-01-13T04:55:29;37.76;36.11;46.80;;
41704;Laerm;861;48.808;9.006;2023-01-13T04:58:05;37.94;36.25;51.98;;
41704;Laerm;861;48.808;9.006;2023-01-13T05:00:32;37.71;36.06;42.45;;
41704;Laerm;861;48.808;9.006;2023-01-13T05:02:58;37.65;36.08;42.84;;
41704;Laerm;861;48.808;9.006;2023-01-13T05:05:28;37.85;36.21;46.37;;
41704;Laerm;861;48.808;9.006;2023-01-13T05:07:56;37.86;36.33;47.73;;
41704;Laerm;861;48.808;9.006;2023-01-13T05:10:22;37.62;36.25;48.01;;
41704;Laerm;861;48.808;9.006;2023-01-13T05:12:50;37.61;36.12;42.19;;
41704;Laerm;861;48.808;9.006;2023-01-13T05:15:34;37.58;36.12;40.97;;
41704;Laerm;861;48.808;9.006;2023-01-13T05:18:20;37.65;36.48;44.27;;
41704;Laerm;861;48.808;9.006;2023-01-13T05:20:46;37.72;36.33;43.98;;
41704;Laerm;861;48.808;9.006;2023-01-13T05:23:12;37.64;36.48;44.63;;
41704;Laerm;861;48.808;9.006;2023-01-13T05:25:57;37.72;36.35;47.60;;
41704;Laerm;861;48.808;9.006;2023-01-13T05:28:23;37.63;36.45;42.29;;
41704;Laerm;861;48.808;9.006;2023-01-13T05:30:49;37.66;36.38;44.42;;
41704;Laerm;861;48.808;9.006;2023-01-13T05:33:18;37.61;36.46;39.86;;
41704;Laerm;861;48.808;9.006;2023-01-13T05:35:48;37.59;36.16;38.94;;
41704;Laerm;861;48.808;9.006;2023-01-13T05:38:15;37.68;36.38;45.78;;
41704;Laerm;861;48.808;9.006;2023-01-13T05:40:43;38.13;36.30;51.03;;
41704;Laerm;861;48.808;9.006;2023-01-13T05:43:29;37.66;36.28;43.27;;
41704;Laerm;861;48.808;9.006;2023-01-13T05:46:05;37.77;35.94;47.62;;
41704;Laerm;861;48.808;9.006;2023-01-13T05:48:42;37.65;36.25;41.80;;
41704;Laerm;861;48.808;9.006;2023-01-13T05:51:12;37.60;36.17;40.98;;
41704;Laerm;861;48.808;9.006;2023-01-13T05:53:38;37.73;36.33;44.50;;
41704;Laerm;861;48.808;9.006;2023-01-13T05:56:10;38.22;36.45;52.76;;
41704;Laerm;861;48.808;9.006;2023-01-13T05:58:37;37.61;36.27;40.96;;
41704;Laerm;861;48.808;9.006;2023-01-13T06:01:07;37.60;36.29;39.73;;
41704;Laerm;861;48.808;9.006;2023-01-13T06:03:34;37.91;36.34;46.44;;
41704;Laerm;861;48.808;9.006;2023-01-13T06:06:02;37.60;36.24;41.42;;
41704;Laerm;861;48.808;9.006;2023-01-13T06:08:31;37.61;36.32;44.56;;
41704;Laerm;861;48.808;9.006;2023-01-13T06:10:58;37.62;36.18;42.89;;
41704;Laerm;861;48.808;9.006;2023-01-13T06:13:24;37.59;36.21;42.28;;
41704;Laerm;861;48.808;9.006;2023-01-13T06:15:50;38.02;36.20;48.88;;
41704;Laerm;861;48.808;9.006;2023-01-13T06:18:16;37.65;35.97;41.99;;
41704;Laerm;861;48.808;9.006;2023-01-13T06:20:43;37.65;36.39;44.52;;
41704;Laerm;861;48.808;9.006;2023-01-13T06:23:11;37.87;36.19;52.24;;
41704;Laerm;861;48.808;9.006;2023-01-13T06:26:15;38.04;36.30;54.00;;
41704;Laerm;861;48.808;9.006;2023-01-13T06:28:43;38.09;36.26;51.22;;
41704;Laerm;861;48.808;9.006;2023-01-13T06:31:10;37.64;36.24;44.50;;
41704;Laerm;861;48.808;9.006;2023-01-13T06:33:55;37.76;36.40;45.02;;
41704;Laerm;861;48.808;9.006;2023-01-13T06:36:37;37.65;36.31;43.59;;
41704;Laerm;861;48.808;9.006;2023-01-13T06:39:06;37.84;36.29;44.77;;
41704;Laerm;861;48.808;9.006;2023-01-13T06:41:34;37.73;36.24;47.91;;
41704;Laerm;861;48.808;9.006;2023-01-13T06:44:23;37.69;36.30;44.69;;
41704;Laerm;861;48.808;9.006;2023-01-13T06:46:51;37.61;36.27;42.55;;
41704;Laerm;861;48.808;9.006;2023-01-13T06:49:17;37.59;36.10;43.84;;
41704;Laerm;861;48.808;9.006;2023-01-13T06:51:43;37.63;36.37;42.62;;
41704;Laerm;861;48.808;9.006;2023-01-13T06:54:09;37.85;36.21;55.41;;
41704;Laerm;861;48.808;9.006;2023-01-13T06:56:35;37.63;36.33;45.47;;
41704;Laerm;861;48.808;9.006;2023-01-13T06:59:02;37.76;36.21;47.19;;
41704;Laerm;861;48.808;9.006;2023-01-13T07:01:28;37.93;36.18;48.55;;
41704;Laerm;861;48.808;9.006;2023-01-13T07:03:54;37.52;36.13;40.81;;
41704;Laerm;861;48.808;9.006;2023-01-13T07:06:21;37.51;36.27;43.53;;
41704;Laerm;861;48.808;9.006;2023-01-13T07:08:47;37.53;36.22;41.12;;
41704;Laerm;861;48.808;9.006;2023-01-13T07:11:13;38.15;36.22;50.89;;
41704;Laerm;861;48.808;9.006;2023-01-13T07:13:39;37.56;36.21;40.92;;
41704;Laerm;861;48.808;9.006;2023-01-13T07:16:24;37.76;36.37;48.91;;
41704;Laerm;861;48.808;9.006;2023-01-13T07:18:53;37.53;36.35;40.15;;
41704;Laerm;861;48.808;9.006;2023-01-13T07:21:19;37.92;36.17;51.50;;
41704;Laerm;861;48.808;9.006;2023-01-13T07:23:47;37.54;36.29;39.89;;
41704;Laerm;861;48.808;9.006;2023-01-13T07:26:15;37.78;36.23;45.27;;
41704;Laerm;861;48.808;9.006;2023-01-13T07:28:42;37.60;36.24;43.42;;
41704;Laerm;861;48.808;9.006;2023-01-13T07:31:20;37.62;36.24;42.37;;
41704;Laerm;861;48.808;9.006;2023-01-13T07:33:47;37.82;36.22;46.15;;
41704;Laerm;861;48.808;9.006;2023-01-13T07:36:14;37.71;36.36;43.82;;
41704;Laerm;861;48.808;9.006;2023-01-13T07:38:41;37.55;36.31;39.72;;
41704;Laerm;861;48.808;9.006;2023-01-13T07:41:13;37.60;36.26;42.99;;
41704;Laerm;861;48.808;9.006;2023-01-13T07:43:59;37.73;36.37;51.74;;
41704;Laerm;861;48.808;9.006;2023-01-13T07:46:27;37.77;36.09;50.06;;
41704;Laerm;861;48.808;9.006;2023-01-13T07:48:56;37.65;35.95;45.18;;
41704;Laerm;861;48.808;9.006;2023-01-13T07:51:24;37.62;36.41;42.37;;
41704;Laerm;861;48.808;9.006;2023-01-13T07:53:50;37.73;36.43;46.89;;
41704;Laerm;861;48.808;9.006;2023-01-13T07:56:16;37.67;36.27;48.55;;
41704;Laerm;861;48.808;9.006;2023-01-13T07:58:43;37.67;36.27;44.57;;
41704;Laerm;861;48.808;9.006;2023-01-13T08:01:12;37.61;36.18;39.85;;
41704;Laerm;861;48.808;9.006;2023-01-13T08:03:40;37.67;36.37;45.79;;
41704;Laerm;861;48.808;9.006;2023-01-13T08:06:08;37.61;36.42;42.45;;
41704;Laerm;861;48.808;9.006;2023-01-13T08:08:35;38.40;36.28;54.81;;
41704;Laerm;861;48.808;9.006;2023-01-13T08:11:06;37.46;35.95;44.45;;
41704;Laerm;861;48.808;9.006;2023-01-13T08:13:34;37.40;35.73;48.71;;
41704;Laerm;861;48.808;9.006;2023-01-13T08:16:13;37.25;35.87;38.80;;
41704;Laerm;861;48.808;9.006;2023-01-13T08:18:40;37.40;36.04;44.12;;
41704;Laerm;861;48.808;9.006;2023-01-13T08:21:13;37.32;35.90;42.87;;
41704;Laerm;861;48.808;9.006;2023-01-13T08:23:43;37.52;35.93;46.89;;
41704;Laerm;861;48.808;9.006;2023-01-13T08:26:16;36.89;32.93;68.14;;
41704;Laerm;861;48.808;9.006;2023-01-13T08:28:44;33.19;31.89;35.79;;
41704;Laerm;861;48.808;9.006;2023-01-13T08:31:15;33.09;31.70;53.27;;
41704;Laerm;861;48.808;9.006;2023-01-13T08:33:41;33.14;31.66;40.55;;
41704;Laerm;861;48.808;9.006;2023-01-13T08:36:11;33.96;31.29;63.62;;
41704;Laerm;861;48.808;9.006;2023-01-13T08:38:39;32.61;31.43;35.71;;
41704;Laerm;861;48.808;9.006;2023-01-13T08:41:15;32.54;31.23;36.90;;
41704;Laerm;861;48.808;9.006;2023-01-13T08:44:01;32.50;31.16;33.80;;
41704;Laerm;861;48.808;9.006;2023-01-13T08:46:28;49.12;31.24;85.26;;
41704;Laerm;861;48.808;9.006;2023-01-13T08:48:55;40.83;31.04;74.15;;
41704;Laerm;861;48.808;9.006;2023-01-13T08:51:21;32.36;30.87;52.32;;
41704;Laerm;861;48.808;9.006;2023-01-13T08:53:47;42.39;30.56;75.89;;
41704;Laerm;861;48.808;9.006;2023-01-13T08:56:13;38.63;30.32;73.60;;
41704;Laerm;861;48.808;9.006;2023-01-13T08:58:39;31.80;30.52;35.92;;
41704;Laerm;861;48.808;9.006;2023-01-13T09:01:07;31.84;30.56;40.90;;
41704;Laerm;861;48.808;9.006;2023-01-13T09:03:34;31.71;30.39;32.82;;
41704;Laerm;861;48.808;9.006;2023-01-13T09:06:01;31.71;30.45;34.73;;
41704;Laerm;861;48.808;9.006;2023-01-13T09:08:27;31.74;30.41;40.24;;
41704;Laerm;861;48.808;9.006;2023-01-13T09:10:53;31.68;30.43;33.17;;
41704;Laerm;861;48.808;9.006;2023-01-13T09:13:19;31.68;30.45;35.07;;
41704;Laerm;861;48.808;9.006;2023-01-13T09:15:46;31.68;30.28;36.28;;
41704;Laerm;861;48.808;9.006;2023-01-13T09:18:13;31.65;30.13;33.36;;
41704;Laerm;861;48.808;9.006;2023-01-13T09:20:39;31.64;30.14;32.88;;
41704;Laerm;861;48.808;9.006;2023-01-13T09:23:07;31.63;30.33;32.70;;
41704;Laerm;861;48.808;9.006;2023-01-13T09:25:33;31.63;30.19;32.73;;
41704;Laerm;861;48.808;9.006;2023-01-13T09:28:01;31.63;30.20;32.79;;
41704;Laerm;861;48.808;9.006;2023-01-13T09:30:30;31.62;30.32;32.82;;
41704;Laerm;861;48.808;9.006;2023-01-13T09:33:00;31.62;30.47;32.80;;
41704;Laerm;861;48.808;9.006;2023-01-13T09:35:44;31.63;30.32;44.44;;
41704;Laerm;861;48.808;9.006;2023-01-13T09:38:10;31.59;30.25;33.08;;
41704;Laerm;861;48.808;9.006;2023-01-13T09:40:40;31.76;30.26;54.01;;
41704;Laerm;861;48.808;9.006;2023-01-13T09:43:36;31.59;30.18;35.05;;
41704;Laerm;861;48.808;9.006;2023-01-13T09:46:42;31.55;30.32;32.77;;
41704;Laerm;861;48.808;9.006;2023-01-13T09:49:30;31.56;30.31;32.85;;
41704;Laerm;861;48.808;9.006;2023-01-13T09:52:21;31.53;29.88;33.10;;
41704;Laerm;861;48.808;9.006;2023-01-13T09:55:09;31.54;30.05;32.77;;
41704;Laerm;861;48.808;9.006;2023-01-13T09:57:38;31.50;30.25;32.72;;
41704;Laerm;861;48.808;9.006;2023-01-13T10:00:21;31.49;30.22;32.93;;
41704;Laerm;861;48.808;9.006;2023-01-13T10:03:30;31.47;30.17;32.64;;
41704;Laerm;861;48.808;9.006;2023-01-13T10:06:26;31.44;29.98;32.72;;
41704;Laerm;861;48.808;9.006;2023-01-13T10:08:58;31.43;30.03;32.62;;
41704;Laerm;861;48.808;9.006;2023-01-13T10:11:43;31.43;30.16;32.87;;
41704;Laerm;861;48.808;9.006;2023-01-13T10:15:02;31.42;30.11;32.72;;
41704;Laerm;861;48.808;9.006;2023-01-13T10:18:18;31.40;30.12;32.69;;
41704;Laerm;861;48.808;9.006;2023-01-13T10:27:38;31.04;29.74;32.30;;
41704;Laerm;861;48.808;9.006;2023-01-13T10:30:46;31.01;29.82;32.40;;
41704;Laerm;861;48.808;9.006;2023-01-13T10:33:26;31.09;29.72;32.37;;
41704;Laerm;861;48.808;9.006;2023-01-13T10:36:14;31.09;29.82;32.28;;
41704;Laerm;861;48.808;9.006;2023-01-13T10:38:49;31.07;29.58;32.23;;
41704;Laerm;861;48.808;9.006;2023-01-13T10:41:17;31.05;29.84;32.21;;
41704;Laerm;861;48.808;9.006;2023-01-13T10:44:02;31.05;29.87;32.13;;
41704;Laerm;861;48.808;9.006;2023-01-13T10:46:55;32.39;29.69;63.72;;
41704;Laerm;861;48.808;9.006;2023-01-13T10:49:36;33.82;29.83;67.31;;
41704;Laerm;861;48.808;9.006;2023-01-13T10:52:32;34.49;29.69;68.97;;
41704;Laerm;861;48.808;9.006;2023-01-13T10:55:02;30.93;29.71;32.32;;
41704;Laerm;861;48.808;9.006;2023-01-13T10:57:36;30.92;29.62;32.25;;
41704;Laerm;861;48.808;9.006;2023-01-13T11:00:05;30.91;29.70;32.07;;
41704;Laerm;861;48.808;9.006;2023-01-13T11:03:25;30.92;29.60;32.08;;
41704;Laerm;861;48.808;9.006;2023-01-13T11:05:59;30.89;29.68;32.50;;
41704;Laerm;861;48.808;9.006;2023-01-13T11:08:46;30.89;29.59;35.00;;
41704;Laerm;861;48.808;9.006;2023-01-13T11:11:43;30.87;29.33;32.26;;
41704;Laerm;861;48.808;9.006;2023-01-13T11:14:42;30.84;29.57;31.97;;
41704;Laerm;861;48.808;9.006;2023-01-13T11:20:13;30.84;29.63;32.18;;
41704;Laerm;861;48.808;9.006;2023-01-13T11:23:03;30.82;29.75;32.11;;
41704;Laerm;861;48.808;9.006;2023-01-13T11:25:45;30.83;29.27;32.06;;
41704;Laerm;861;48.808;9.006;2023-01-13T11:28:41;30.81;29.54;32.23;;
41704;Laerm;861;48.808;9.006;2023-01-13T11:31:41;30.80;29.65;32.01;;
41704;Laerm;861;48.808;9.006;2023-01-13T11:34:34;30.80;29.47;32.02;;
41704;Laerm;861;48.808;9.006;2023-01-13T11:37:27;30.79;29.49;32.09;;
41704;Laerm;861;48.808;9.006;2023-01-13T11:40:30;30.79;29.34;31.91;;
41704;Laerm;861;48.808;9.006;2023-01-13T11:43:52;30.77;29.51;32.07;;
41704;Laerm;861;48.808;9.006;2023-01-13T11:46:27;30.77;29.61;32.00;;
41704;Laerm;861;48.808;9.006;2023-01-13T11:48:55;33.43;29.43;66.38;;
41704;Laerm;861;48.808;9.006;2023-01-13T11:51:39;30.70;29.53;32.03;;
41704;Laerm;861;48.808;9.006;2023-01-13T12:07:13;30.56;29.09;32.02;;
41704;Laerm;861;48.808;9.006;2023-01-13T12:16:25;37.89;36.06;50.70;;
41704;Laerm;861;48.808;9.006;2023-01-13T12:19:28;37.39;35.86;45.48;;
41704;Laerm;861;48.808;9.006;2023-01-13T12:22:33;38.18;36.11;53.27;;
41704;Laerm;861;48.808;9.006;2023-01-13T12:25:31;42.20;36.12;60.55;;
41704;Laerm;861;48.808;9.006;2023-01-13T12:28:13;38.36;36.00;53.15;;
41704;Laerm;861;48.808;9.006;2023-01-13T12:31:01;40.72;35.74;58.57;;
41704;Laerm;861;48.808;9.006;2023-01-13T12:37:45;41.20;35.93;64.42;;
41704;Laerm;861;48.808;9.006;2023-01-13T12:40:55;41.15;35.90;61.82;;
41704;Laerm;861;48.808;9.006;2023-01-13T12:43:25;41.43;35.93;59.48;;
41704;Laerm;861;48.808;9.006;2023-01-13T12:54:59;39.81;36.08;57.82;;
41704;Laerm;861;48.808;9.006;2023-01-13T12:57:31;38.55;35.93;53.42;;
41704;Laerm;861;48.808;9.006;2023-01-13T13:03:13;45.76;35.85;64.89;;
41704;Laerm;861;48.808;9.006;2023-01-13T13:05:53;41.65;35.91;63.22;;
41704;Laerm;861;48.808;9.006;2023-01-13T13:09:00;39.71;35.94;56.51;;
41704;Laerm;861;48.808;9.006;2023-01-13T13:11:39;39.47;35.87;56.36;;
41704;Laerm;861;48.808;9.006;2023-01-13T13:19:58;38.54;35.87;54.57;;
41704;Laerm;861;48.808;9.006;2023-01-13T13:22:37;43.23;36.00;60.10;;
41704;Laerm;861;48.808;9.006;2023-01-13T13:25:23;41.22;35.96;59.08;;
41704;Laerm;861;48.808;9.006;2023-01-13T13:28:17;41.83;35.87;61.33;;
41704;Laerm;861;48.808;9.006;2023-01-13T13:41:50;38.32;35.57;60.78;;
41704;Laerm;861;48.808;9.006;2023-01-13T13:44:48;39.12;35.74;55.06;;
41704;Laerm;861;48.808;9.006;2023-01-13T13:47:38;38.50;35.92;54.19;;
41704;Laerm;861;48.808;9.006;2023-01-13T13:50:19;37.70;35.75;50.33;;
41704;Laerm;861;48.808;9.006;2023-01-13T13:53:01;40.73;35.85;60.00;;
41704;Laerm;861;48.808;9.006;2023-01-13T13:55:32;40.77;35.77;60.50;;
41704;Laerm;861;48.808;9.006;2023-01-13T13:58:00;40.79;35.79;57.08;;
41704;Laerm;861;48.808;9.006;2023-01-13T14:00:36;36.30;32.77;43.17;;
41704;Laerm;861;48.808;9.006;2023-01-13T14:03:30;36.63;32.37;45.88;;
41704;Laerm;861;48.808;9.006;2023-01-13T14:06:06;37.34;35.94;45.64;;
41704;Laerm;861;48.808;9.006;2023-01-13T14:08:39;36.15;34.18;44.13;;
41704;Laerm;861;48.808;9.006;2023-01-13T14:11:32;35.06;33.72;41.00;;
41704;Laerm;861;48.808;9.006;2023-01-13T14:14:14;34.07;32.40;35.89;;
41704;Laerm;861;48.808;9.006;2023-01-13T14:16:42;33.38;32.03;34.63;;
41704;Laerm;861;48.808;9.006;2023-01-13T14:19:35;33.21;31.94;36.90;;
41704;Laerm;861;48.808;9.006;2023-01-13T14:22:05;33.19;31.72;36.12;;
41704;Laerm;861;48.808;9.006;2023-01-13T14:24:32;34.10;31.66;36.73;;
41704;Laerm;861;48.808;9.006;2023-01-13T14:27:17;36.29;34.57;37.67;;
41704;Laerm;861;48.808;9.006;2023-01-13T14:29:45;35.81;34.50;37.25;;
41704;Laerm;861;48.808;9.006;2023-01-13T14:32:22;35.34;33.89;36.72;;
41704;Laerm;861;48.808;9.006;2023-01-13T14:34:51;36.59;34.78;37.98;;
41704;Laerm;861;48.808;9.006;2023-01-13T14:37:41;37.07;35.56;38.67;;
41704;Laerm;861;48.808;9.006;2023-01-13T14:43:02;35.72;34.31;37.22;;
41704;Laerm;861;48.808;9.006;2023-01-13T14:45:29;35.17;33.96;36.62;;
41704;Laerm;861;48.808;9.006;2023-01-13T14:48:07;35.14;33.80;36.65;;
41704;Laerm;861;48.808;9.006;2023-01-13T14:50:34;35.28;33.81;36.58;;
41704;Laerm;861;48.808;9.006;2023-01-13T14:53:01;35.33;34.04;36.65;;
41704;Laerm;861;48.808;9.006;2023-01-13T14:55:36;35.59;33.89;39.23;;
41704;Laerm;861;48.808;9.006;2023-01-13T14:58:24;36.52;35.13;38.07;;
41704;Laerm;861;48.808;9.006;2023-01-13T15:01:34;36.30;34.71;37.83;;
41704;Laerm;861;48.808;9.006;2023-01-13T15:04:34;35.78;34.34;37.26;;
41704;Laerm;861;48.808;9.006;2023-01-13T15:07:04;35.38;34.01;36.94;;
41704;Laerm;861;48.808;9.006;2023-01-13T15:09:41;35.54;34.37;36.83;;
41704;Laerm;861;48.808;9.006;2023-01-13T15:12:35;35.71;34.27;36.94;;
41704;Laerm;861;48.808;9.006;2023-01-13T15:15:36;36.18;34.93;38.84;;
41704;Laerm;861;48.808;9.006;2023-01-13T15:18:40;36.23;34.78;37.64;;
41704;Laerm;861;48.808;9.006;2023-01-13T15:21:08;36.01;34.82;37.38;;
41704;Laerm;861;48.808;9.006;2023-01-13T15:23:36;35.77;34.54;37.22;;
41704;Laerm;861;48.808;9.006;2023-01-13T15:26:19;35.82;34.36;37.37;;
41704;Laerm;861;48.808;9.006;2023-01-13T15:28:48;35.15;33.79;42.54;;
41704;Laerm;861;48.808;9.006;2023-01-13T15:31:15;34.95;33.58;36.13;;
41704;Laerm;861;48.808;9.006;2023-01-13T15:33:41;35.07;33.69;36.17;;
41704;Laerm;861;48.808;9.006;2023-01-13T15:36:31;35.19;33.95;37.62;;
41704;Laerm;861;48.808;9.006;2023-01-13T15:39:00;35.37;34.27;36.60;;
41704;Laerm;861;48.808;9.006;2023-01-13T15:41:27;35.55;34.07;36.72;;
41704;Laerm;861;48.808;9.006;2023-01-13T15:44:16;35.61;34.28;37.02;;
41704;Laerm;861;48.808;9.006;2023-01-13T15:47:09;35.67;34.29;36.85;;
41704;Laerm;861;48.808;9.006;2023-01-13T15:49:46;35.80;34.62;37.03;;
41704;Laerm;861;48.808;9.006;2023-01-13T15:52:26;35.76;34.50;37.00;;
41704;Laerm;861;48.808;9.006;2023-01-13T15:54:53;35.94;34.40;37.32;;
41704;Laerm;861;48.808;9.006;2023-01-13T15:57:31;35.77;34.60;37.04;;
41704;Laerm;861;48.808;9.006;2023-01-13T16:00:13;35.79;34.56;36.90;;
41704;Laerm;861;48.808;9.006;2023-01-13T16:02:40;35.39;33.68;38.46;;
41704;Laerm;861;48.808;9.006;2023-01-13T16:05:10;34.82;33.56;35.98;;
41704;Laerm;861;48.808;9.006;2023-01-13T16:07:38;34.45;33.21;35.80;;
41704;Laerm;861;48.808;9.006;2023-01-13T16:10:17;34.12;32.93;35.33;;
41704;Laerm;861;48.808;9.006;2023-01-13T16:12:43;34.16;33.04;35.49;;
41704;Laerm;861;48.808;9.006;2023-01-13T16:15:18;34.02;32.86;35.05;;
41704;Laerm;861;48.808;9.006;2023-01-13T16:17:58;33.80;32.55;34.92;;
41704;Laerm;861;48.808;9.006;2023-01-13T16:20:27;33.45;32.15;34.57;;
41704;Laerm;861;48.808;9.006;2023-01-13T16:22:53;33.25;31.86;34.54;;
41704;Laerm;861;48.808;9.006;2023-01-13T16:25:26;33.09;31.71;34.06;;
41704;Laerm;861;48.808;9.006;2023-01-13T16:27:52;32.97;31.72;34.09;;
41704;Laerm;861;48.808;9.006;2023-01-13T16:30:35;32.91;31.64;34.01;;
41704;Laerm;861;48.808;9.006;2023-01-13T16:33:02;32.86;31.73;34.12;;